Allensville, Kentucky
Current Conditions -  °F | °C
As of 11:52 AM on Saturday 25 Oct 2014 (Local Time) from KCKV Reporting Station
Clear Clear  
Wind Chill: 73°   Ceiling: Unl
Heat Index: 73°   Visibility: 10mi
Dew Point: 60°   Wind: 7mph
Humidity: 64%   Direction: 280°W
Pressure: 30.04"   Gusts: NA
Location:  36.72°N, 87.07°W
Report Text: KCKV 251652Z AUTO 28006KT 10SM CLR 23/16 A3004 RMK AO2 SLP171 T02280156
Loading
Personal Weather Stations






























Interactive Weather Map New forecast layout! Learn more

10-Day Weather Forecast

Advertisements
Track Severe Weather on mobile